Terminal Aerodrome Forecast
Issued by NWS

Home | Current Version | Previous Version | Text Only | Print | Product List | Glossary On
Versions: 1 2 3 4 5 6 7 8 9 10 11 12 13 14 15 16 17 18 19 20 21 22 23
000
FTUS43 KDTX 291131
TAFYIP
TAF
KYIP 291131Z 2912/3012 17005KT P6SM SCT060 BKN150
     FM291700 22008KT P6SM BKN045 BKN120
      TEMPO 2920/2922 3SM TSRA BKN035CB OVC060
     FM300100 26008KT P6SM SCT250=

USA.gov is the U.S. government's official web portal to all federal, state and local government web resources and services.